createdAt,value
2023-02-11T00:00:35.196Z,100445.98
2023-02-11T00:03:26.745Z,100448.20
2023-02-11T00:06:14.783Z,100450.42
2023-02-11T00:09:03.665Z,100442.29
2023-02-11T00:11:52.820Z,100430.71
2023-02-11T00:14:40.468Z,100417.14
2023-02-11T00:17:28.229Z,100400.43
2023-02-11T00:20:16.401Z,100381.89
2023-02-11T00:23:04.644Z,100372.38
2023-02-11T00:25:52.683Z,100361.02
2023-02-11T00:28:41.337Z,100355.02
2023-02-11T00:31:30.090Z,100337.63
2023-02-11T00:34:18.494Z,100329.05
2023-02-11T00:37:06.562Z,100314.98
2023-02-11T00:39:54.919Z,100288.44
2023-02-11T00:42:43.140Z,100278.89
2023-02-11T00:45:31.087Z,100268.63
2023-02-11T00:48:19.410Z,100270.13
2023-02-11T00:51:07.813Z,100264.27
2023-02-11T00:53:55.650Z,100269.05
2023-02-11T00:56:44.532Z,100253.27
2023-02-11T00:59:32.595Z,100246.95
2023-02-11T01:02:22.248Z,100242.91
2023-02-11T01:05:10.249Z,100236.70
2023-02-11T01:07:58.753Z,100237.71
2023-02-11T01:10:54.429Z,100235.68
2023-02-11T01:13:43.021Z,100234.39
2023-02-11T01:16:31.033Z,100229.24
2023-02-11T01:19:19.093Z,100238.33
2023-02-11T01:22:07.312Z,100229.48
2023-02-11T01:24:55.106Z,100242.91
2023-02-11T01:27:43.394Z,100225.29
2023-02-11T01:30:31.801Z,100216.15
2023-02-11T01:33:19.557Z,100219.73
2023-02-11T01:36:08.172Z,100218.64
2023-02-11T01:38:55.864Z,100204.16
2023-02-11T01:41:43.921Z,100195.52
2023-02-11T01:44:37.252Z,100175.71
2023-02-11T01:47:25.169Z,100170.26
2023-02-11T01:50:13.376Z,100169.53
2023-02-11T01:53:21.263Z,100158.46
2023-02-11T01:56:29.001Z,100146.15
2023-02-11T01:59:44.769Z,100139.96
2023-02-11T02:02:50.586Z,100131.60
2023-02-11T02:06:11.053Z,100133.35
2023-02-11T02:09:28.973Z,100121.45
2023-02-11T02:12:16.932Z,100126.10
2023-02-11T02:15:34.665Z,100114.92
2023-02-11T02:19:00.628Z,100110.54
2023-02-11T02:22:32.999Z,100106.11
2023-02-11T02:25:56.111Z,100111.37
2023-02-11T02:29:24.925Z,100103.05
2023-02-11T02:32:27.486Z,100093.35
2023-02-11T02:36:07.378Z,100087.98
2023-02-11T02:39:11.844Z,100079.89
2023-02-11T02:41:59.994Z,100064.94
2023-02-11T02:44:52.654Z,100068.30
2023-02-11T02:47:40.821Z,100050.52
2023-02-11T02:50:36.965Z,100042.28
2023-02-11T02:54:11.891Z,100044.61
2023-02-11T02:57:18.211Z,100035.23
2023-02-11T03:00:23.432Z,100032.36
2023-02-11T03:03:29.675Z,100029.27
2023-02-11T03:06:31.329Z,100020.95
2023-02-11T03:09:42.793Z,100011.69
2023-02-11T03:12:33.337Z,100013.09
2023-02-11T03:15:24.464Z,100010.38
2023-02-11T03:18:17.262Z,100007.08
2023-02-11T03:21:08.866Z,100004.23
2023-02-11T03:24:03.458Z,99994.24
2023-02-11T03:26:59.249Z,99994.41
2023-02-11T03:30:06.314Z,99989.13
2023-02-11T03:33:21.213Z,99991.09
2023-02-11T03:36:22.494Z,99975.72
2023-02-11T03:39:14.553Z,99959.64
2023-02-11T03:42:04.352Z,99950.81
2023-02-11T03:45:01.748Z,99953.06
2023-02-11T03:47:59.180Z,99961.95
2023-02-11T03:50:50.209Z,99963.36
2023-02-11T03:53:41.601Z,99962.58
2023-02-11T03:56:37.280Z,99955.95
2023-02-11T03:59:26.060Z,99950.13
2023-02-11T04:02:14.116Z,99947.64
2023-02-11T04:05:02.463Z,99947.38
2023-02-11T04:07:50.116Z,99945.20
2023-02-11T04:10:38.172Z,99937.23
2023-02-11T04:13:26.413Z,99928.39
2023-02-11T04:16:15.382Z,99934.31
2023-02-11T04:19:03.065Z,99911.55
2023-02-11T04:21:51.013Z,99907.89
2023-02-11T04:24:39.043Z,99906.85
2023-02-11T04:27:26.950Z,99908.06
2023-02-11T04:30:14.980Z,99913.39
2023-02-11T04:33:02.930Z,99907.14
2023-02-11T04:35:51.206Z,99901.99
2023-02-11T04:38:39.314Z,99897.35
2023-02-11T04:41:27.440Z,99892.66
2023-02-11T04:44:15.604Z,99882.18
2023-02-11T04:47:03.287Z,99879.90
2023-02-11T04:49:51.136Z,99876.41
2023-02-11T04:52:38.881Z,99869.23
2023-02-11T04:55:26.884Z,99854.91
2023-02-11T04:58:14.655Z,99848.02
2023-02-11T05:01:12.664Z,99830.98
2023-02-11T05:04:00.475Z,99823.62
2023-02-11T05:06:48.448Z,99823.88
2023-02-11T05:09:36.400Z,99814.30
2023-02-11T05:12:24.343Z,99808.67
2023-02-11T05:15:11.966Z,99794.40
2023-02-11T05:17:59.700Z,99797.51
2023-02-11T05:20:47.761Z,99789.05
2023-02-11T05:23:36.626Z,99797.86
2023-02-11T05:26:24.733Z,99791.05
2023-02-11T05:29:12.428Z,99781.91
2023-02-11T05:32:00.466Z,99768.48
2023-02-11T05:34:48.505Z,99757.62
2023-02-11T05:37:36.802Z,99758.23
2023-02-11T05:40:24.623Z,99755.73
2023-02-11T05:43:12.430Z,99732.03
2023-02-11T05:46:00.315Z,99736.58
2023-02-11T05:48:48.153Z,99722.17
2023-02-11T05:51:35.961Z,99719.86
2023-02-11T05:54:23.897Z,99712.70
2023-02-11T05:57:12.150Z,99712.83
2023-02-11T06:00:00.230Z,99714.69
2023-02-11T06:02:48.094Z,99693.80
2023-02-11T06:05:35.751Z,99686.39
2023-02-11T06:08:23.889Z,99697.77
2023-02-11T06:11:11.578Z,99693.51
2023-02-11T06:13:59.720Z,99697.17
2023-02-11T06:16:47.833Z,99698.52
2023-02-11T06:19:36.411Z,99693.19
2023-02-11T06:22:24.404Z,99700.10
2023-02-11T06:25:13.440Z,99686.60
2023-02-11T06:28:01.793Z,99691.70
2023-02-11T06:30:49.978Z,99685.40
2023-02-11T06:33:38.906Z,99681.70
2023-02-11T06:36:26.807Z,99682.39
2023-02-11T06:39:14.959Z,99687.52
2023-02-11T06:42:03.920Z,99710.38
2023-02-11T06:44:52.828Z,99707.15
2023-02-11T06:47:41.420Z,99712.96
2023-02-11T06:50:29.018Z,99708.02
2023-02-11T06:53:16.787Z,99728.98
2023-02-11T06:56:07.519Z,99731.83
2023-02-11T06:58:56.953Z,99725.36
2023-02-11T07:01:45.212Z,99742.91
2023-02-11T07:04:33.164Z,99735.96
2023-02-11T07:07:21.526Z,99724.62
2023-02-11T07:10:09.586Z,99739.25
2023-02-11T07:12:58.833Z,99729.82
2023-02-11T07:15:47.181Z,99725.23
2023-02-11T07:18:35.409Z,99721.35
2023-02-11T07:21:26.754Z,99719.70
2023-02-11T07:24:15.439Z,99691.60
2023-02-11T07:27:03.239Z,99702.10
2023-02-11T07:29:51.149Z,99694.46
2023-02-11T07:32:38.961Z,99685.64
2023-02-11T07:35:27.005Z,99685.17
2023-02-11T07:38:14.848Z,99670.81
2023-02-11T07:41:07.088Z,99669.70
2023-02-11T07:43:55.120Z,99662.38
2023-02-11T07:46:45.280Z,99667.30
2023-02-11T07:49:33.535Z,99666.38
2023-02-11T07:52:21.446Z,99661.29
2023-02-11T07:55:10.185Z,99673.45
2023-02-11T07:57:58.175Z,99671.26
2023-02-11T08:00:46.200Z,99665.03
2023-02-11T08:03:36.243Z,99660.08
2023-02-11T08:06:28.132Z,99652.02
2023-02-11T08:09:17.035Z,99665.83
2023-02-11T08:12:05.286Z,99678.44
2023-02-11T08:14:53.039Z,99671.71
2023-02-11T08:17:40.858Z,99688.98
2023-02-11T08:20:29.266Z,99695.30
2023-02-11T08:23:17.089Z,99683.37
2023-02-11T08:26:15.117Z,99670.38
2023-02-11T08:29:09.388Z,99657.36
2023-02-11T08:31:57.320Z,99648.84
2023-02-11T08:34:45.379Z,99641.99
2023-02-11T08:37:33.956Z,99632.56
2023-02-11T08:40:22.788Z,99630.73
2023-02-11T08:43:10.992Z,99625.78
2023-02-11T08:46:02.021Z,99632.30
2023-02-11T08:48:50.899Z,99633.79
2023-02-11T08:51:38.973Z,99623.13
2023-02-11T08:54:26.802Z,99641.27
2023-02-11T08:57:14.379Z,99641.89
2023-02-11T09:00:03.610Z,99644.52
2023-02-11T09:02:51.832Z,99656.64
2023-02-11T09:05:48.199Z,99658.61
2023-02-11T09:08:38.885Z,99653.08
2023-02-11T09:11:33.037Z,99661.33
2023-02-11T09:14:24.638Z,99671.55
2023-02-11T09:17:12.744Z,99671.61
2023-02-11T09:20:00.890Z,99661.83
2023-02-11T09:22:48.867Z,99654.50
2023-02-11T09:25:41.255Z,99658.39
2023-02-11T09:28:29.065Z,99656.35
2023-02-11T09:31:22.298Z,99675.57
2023-02-11T09:34:12.088Z,99675.30
2023-02-11T09:36:59.744Z,99685.42
2023-02-11T09:39:47.812Z,99690.39
2023-02-11T09:43:02.353Z,99700.79
2023-02-11T09:45:55.821Z,99706.86
2023-02-11T09:48:47.994Z,99711.73
2023-02-11T09:51:49.869Z,99707.31
2023-02-11T09:55:05.119Z,99732.28
2023-02-11T09:57:53.853Z,99718.19
2023-02-11T10:00:57.300Z,99708.23
2023-02-11T10:03:51.198Z,99703.64
2023-02-11T10:06:45.307Z,99720.09
2023-02-11T10:09:35.609Z,99724.62
2023-02-11T10:12:38.941Z,99723.58
2023-02-11T10:15:52.308Z,99727.42
2023-02-11T10:19:11.363Z,99736.17
2023-02-11T10:22:25.751Z,99747.05
2023-02-11T10:25:21.459Z,99752.02
2023-02-11T10:28:20.179Z,99758.78
2023-02-11T10:31:23.186Z,99762.47
2023-02-11T10:34:13.726Z,99763.44
2023-02-11T10:37:01.536Z,99769.70
2023-02-11T10:39:49.437Z,99770.29
2023-02-11T10:42:37.560Z,99781.81
2023-02-11T10:45:45.064Z,99801.63
2023-02-11T10:48:43.183Z,99812.77
2023-02-11T10:51:34.307Z,99813.69
2023-02-11T10:54:24.439Z,99822.14
2023-02-11T10:57:20.189Z,99820.30
2023-02-11T11:00:38.093Z,99826.83
2023-02-11T11:03:32.390Z,99825.27
2023-02-11T11:06:33.025Z,99827.73
2023-02-11T11:09:43.559Z,99829.84
2023-02-11T11:12:45.629Z,99835.36
2023-02-11T11:15:33.514Z,99839.55
2023-02-11T11:18:23.219Z,99847.84
2023-02-11T11:21:24.629Z,99854.08
2023-02-11T11:24:24.555Z,99858.45
2023-02-11T11:27:24.900Z,99861.81
2023-02-11T11:30:17.227Z,99866.32
2023-02-11T11:33:05.422Z,99865.66
2023-02-11T11:36:07.818Z,99868.01
2023-02-11T11:39:00.961Z,99876.11
2023-02-11T11:42:05.925Z,99877.95
2023-02-11T11:45:10.266Z,99883.55
2023-02-11T11:48:23.658Z,99885.25
2023-02-11T11:51:12.801Z,99894.85
2023-02-11T11:54:06.690Z,99896.30
2023-02-11T11:57:04.011Z,99901.13
2023-02-11T11:59:52.442Z,99912.09
2023-02-11T12:03:00.433Z,99914.41
2023-02-11T12:06:06.311Z,99916.14
2023-02-11T12:09:41.691Z,99917.06
2023-02-11T12:13:00.520Z,99924.36
2023-02-11T12:16:31.452Z,99927.92
2023-02-11T12:20:18.227Z,99928.90
2023-02-11T12:23:30.770Z,99930.59
2023-02-11T12:26:23.947Z,99935.16
2023-02-11T12:30:00.513Z,99940.48
2023-02-11T12:33:51.621Z,99943.30
2023-02-11T12:36:55.444Z,99952.60
2023-02-11T12:39:52.133Z,99960.42
2023-02-11T12:43:17.952Z,99957.23
2023-02-11T12:46:23.804Z,99963.76
2023-02-11T12:49:23.143Z,99958.83
2023-02-11T12:52:21.513Z,99963.49
2023-02-11T12:55:24.520Z,99965.60
2023-02-11T12:58:29.645Z,99970.95
2023-02-11T13:01:34.143Z,99977.83
2023-02-11T13:04:35.223Z,99984.02
2023-02-11T13:07:31.270Z,99986.86
2023-02-11T13:10:30.230Z,99991.21
2023-02-11T13:13:39.352Z,99992.03
2023-02-11T13:16:33.779Z,99988.98
2023-02-11T13:19:42.597Z,99998.85
2023-02-11T13:22:49.240Z,100006.79
2023-02-11T13:25:49.222Z,100010.36
2023-02-11T13:29:13.412Z,100009.70
2023-02-11T13:32:14.629Z,100007.80
2023-02-11T13:35:02.413Z,100013.20
2023-02-11T13:37:50.389Z,100016.41
2023-02-11T13:40:40.078Z,100023.84
2023-02-11T13:43:29.630Z,100019.48
2023-02-11T13:46:18.903Z,100022.25
2023-02-11T13:49:20.160Z,100033.88
2023-02-11T13:52:32.323Z,100043.27
2023-02-11T13:55:24.503Z,100030.02
2023-02-11T13:58:12.490Z,100045.29
2023-02-11T14:01:00.608Z,100055.76
2023-02-11T14:04:38.888Z,100065.26
2023-02-11T14:07:51.601Z,100071.35
2023-02-11T14:10:41.973Z,100079.46
2023-02-11T14:13:56.753Z,100087.58
2023-02-11T14:16:59.841Z,100098.75
2023-02-11T14:19:49.506Z,100111.23
2023-02-11T14:22:49.652Z,100112.15
2023-02-11T14:25:40.887Z,100122.70
2023-02-11T14:28:34.473Z,100125.98
2023-02-11T14:31:43.022Z,100138.42
2023-02-11T14:34:42.837Z,100143.55
2023-02-11T14:37:39.699Z,100158.73
2023-02-11T14:40:58.872Z,100167.42
2023-02-11T14:43:55.157Z,100175.66
2023-02-11T14:46:48.391Z,100179.34
2023-02-11T14:49:40.649Z,100195.52
2023-02-11T14:52:36.913Z,100203.70
2023-02-11T14:55:29.394Z,100214.94
2023-02-11T14:58:21.090Z,100223.29
2023-02-11T15:01:41.638Z,100227.80
2023-02-11T15:04:33.626Z,100239.82
2023-02-11T15:07:22.428Z,100240.88
2023-02-11T15:10:21.305Z,100244.27
2023-02-11T15:13:16.687Z,100253.66
2023-02-11T15:16:11.254Z,100271.55
2023-02-11T15:19:07.534Z,100282.83
2023-02-11T15:21:56.976Z,100288.65
2023-02-11T15:24:45.114Z,100286.70
2023-02-11T15:27:56.796Z,100299.91
2023-02-11T15:30:44.944Z,100310.45
2023-02-11T15:33:33.368Z,100302.99
2023-02-11T15:36:28.904Z,100310.57
2023-02-11T15:39:41.228Z,100316.02
2023-02-11T15:42:40.794Z,100324.08
2023-02-11T15:45:40.511Z,100330.83
2023-02-11T15:48:47.632Z,100347.73
2023-02-11T15:51:39.992Z,100356.98
2023-02-11T15:54:34.409Z,100369.30
2023-02-11T15:57:23.320Z,100375.52
2023-02-11T16:00:28.702Z,100384.23
2023-02-11T16:03:24.586Z,100399.40
2023-02-11T16:06:35.964Z,100402.95
2023-02-11T16:09:37.125Z,100416.98
2023-02-11T16:12:30.315Z,100435.80
2023-02-11T16:15:46.912Z,100444.02
2023-02-11T16:19:03.282Z,100462.30
2023-02-11T16:21:53.589Z,100475.06
2023-02-11T16:24:42.091Z,100486.54
2023-02-11T16:27:42.204Z,100499.36
2023-02-11T16:30:40.625Z,100508.83
2023-02-11T16:33:28.903Z,100517.77
2023-02-11T16:36:17.429Z,100530.23
2023-02-11T16:39:05.796Z,100541.13
2023-02-11T16:41:53.743Z,100546.84
2023-02-11T16:44:41.772Z,100556.48
2023-02-11T16:47:31.316Z,100561.22
2023-02-11T16:50:25.334Z,100569.13
2023-02-11T16:53:18.737Z,100573.48
2023-02-11T16:56:06.936Z,100582.57
2023-02-11T16:58:55.105Z,100586.77
2023-02-11T17:01:44.628Z,100594.02
2023-02-11T17:04:33.774Z,100601.31
2023-02-11T17:07:22.166Z,100609.86
2023-02-11T17:10:20.692Z,100616.73
2023-02-11T17:13:08.986Z,100628.20
2023-02-11T17:15:57.024Z,100641.52
2023-02-11T17:18:45.549Z,100648.77
2023-02-11T17:21:34.030Z,100659.08
2023-02-11T17:24:22.937Z,100665.46
2023-02-11T17:27:12.207Z,100674.71
2023-02-11T17:30:00.198Z,100685.01
2023-02-11T17:32:48.148Z,100689.97
2023-02-11T17:35:40.644Z,100689.62
2023-02-11T17:38:28.433Z,100698.75
2023-02-11T17:41:17.114Z,100710.89
2023-02-11T17:44:07.502Z,100719.83
2023-02-11T17:46:56.842Z,100723.05
2023-02-11T17:49:44.784Z,100732.00
2023-02-11T17:52:32.737Z,100729.30
2023-02-11T17:55:20.538Z,100734.40
2023-02-11T17:58:08.534Z,100741.70
2023-02-11T18:00:59.236Z,100748.29
2023-02-11T18:03:47.432Z,100756.58
2023-02-11T18:06:35.630Z,100765.69
2023-02-11T18:09:25.020Z,100768.81
2023-02-11T18:12:13.139Z,100786.45
2023-02-11T18:15:01.318Z,100798.08
2023-02-11T18:17:49.295Z,100799.58
2023-02-11T18:20:37.587Z,100800.91
2023-02-11T18:23:26.629Z,100798.52
2023-02-11T18:26:17.976Z,100805.90
2023-02-11T18:29:07.117Z,100810.02
2023-02-11T18:31:57.359Z,100810.60
2023-02-11T18:34:45.413Z,100816.27
2023-02-11T18:37:34.906Z,100822.52
2023-02-11T18:40:22.934Z,100828.48
2023-02-11T18:43:10.873Z,100833.00
2023-02-11T18:45:59.457Z,100839.85
2023-02-11T18:48:47.400Z,100848.20
2023-02-11T18:51:38.041Z,100858.86
2023-02-11T18:54:26.016Z,100875.05
2023-02-11T18:57:13.891Z,100877.66
2023-02-11T19:00:02.139Z,100883.56
2023-02-11T19:02:50.467Z,100891.77
2023-02-11T19:05:48.608Z,100901.02
2023-02-11T19:08:36.590Z,100908.70
2023-02-11T19:11:45.129Z,100908.67
2023-02-11T19:14:34.535Z,100915.35
2023-02-11T19:17:22.600Z,100925.39
2023-02-11T19:20:11.182Z,100930.70
2023-02-11T19:23:00.850Z,100933.94
2023-02-11T19:25:49.302Z,100944.13
2023-02-11T19:28:37.825Z,100955.55
2023-02-11T19:31:26.634Z,100966.07
2023-02-11T19:34:16.890Z,100968.71
2023-02-11T19:37:05.019Z,100971.88
2023-02-11T19:39:54.627Z,100978.39
2023-02-11T19:42:43.127Z,100986.80
2023-02-11T19:45:30.806Z,100993.42
2023-02-11T19:48:18.831Z,100997.05
2023-02-11T19:51:13.197Z,101008.08
2023-02-11T19:54:01.365Z,101011.61
2023-02-11T19:56:49.751Z,101020.15
2023-02-11T19:59:37.644Z,101030.06
2023-02-11T20:02:25.746Z,101025.39
2023-02-11T20:05:13.863Z,101032.92
2023-02-11T20:08:01.745Z,101046.23
2023-02-11T20:10:50.164Z,101048.09
2023-02-11T20:13:39.384Z,101053.30
2023-02-11T20:16:46.039Z,101053.48
2023-02-11T20:19:36.142Z,101057.52
2023-02-11T20:22:24.063Z,101065.27
2023-02-11T20:25:11.971Z,101066.77
2023-02-11T20:28:00.213Z,101070.18
2023-02-11T20:30:59.538Z,101087.55
2023-02-11T20:33:48.751Z,101106.56
2023-02-11T20:36:38.757Z,101110.52
2023-02-11T20:39:27.543Z,101116.69
2023-02-11T20:42:15.744Z,101118.99
2023-02-11T20:45:03.955Z,101124.19
2023-02-11T20:47:51.761Z,101128.33
2023-02-11T20:50:40.104Z,101135.02
2023-02-11T20:53:28.803Z,101135.64
2023-02-11T20:56:23.709Z,101133.75
2023-02-11T20:59:14.059Z,101142.30
2023-02-11T21:02:02.352Z,101148.82
2023-02-11T21:04:50.191Z,101160.04
2023-02-11T21:07:39.206Z,101166.67
2023-02-11T21:10:27.541Z,101174.69
2023-02-11T21:13:15.972Z,101178.02
2023-02-11T21:16:04.391Z,101181.72
2023-02-11T21:18:52.729Z,101182.11
2023-02-11T21:21:41.270Z,101188.77
2023-02-11T21:24:30.971Z,101188.79
2023-02-11T21:27:19.183Z,101187.42
2023-02-11T21:30:08.376Z,101193.19
2023-02-11T21:32:59.212Z,101195.79
2023-02-11T21:35:47.023Z,101203.98
2023-02-11T21:38:35.946Z,101203.20
2023-02-11T21:41:24.989Z,101209.79
2023-02-11T21:44:13.011Z,101219.39
2023-02-11T21:47:01.281Z,101220.07
2023-02-11T21:49:48.958Z,101220.07
2023-02-11T21:52:37.058Z,101224.44
2023-02-11T21:55:25.215Z,101224.09
2023-02-11T21:58:14.112Z,101226.34
2023-02-11T22:01:02.689Z,101231.41
2023-02-11T22:03:50.997Z,101229.86
2023-02-11T22:06:39.227Z,101233.88
2023-02-11T22:09:27.099Z,101243.10
2023-02-11T22:12:15.201Z,101244.60
2023-02-11T22:15:03.084Z,101241.52
2023-02-11T22:17:50.973Z,101243.05
2023-02-11T22:20:39.072Z,101241.86
2023-02-11T22:23:27.983Z,101252.95
2023-02-11T22:26:21.945Z,101253.19
2023-02-11T22:29:10.859Z,101258.71
2023-02-11T22:31:59.059Z,101268.58
2023-02-11T22:34:46.933Z,101273.50
2023-02-11T22:37:34.609Z,101278.02
2023-02-11T22:40:23.495Z,101280.43
2023-02-11T22:43:11.273Z,101281.81
2023-02-11T22:46:04.889Z,101281.48
2023-02-11T22:48:53.477Z,101287.84
2023-02-11T22:51:41.783Z,101296.52
2023-02-11T22:54:29.483Z,101291.70
2023-02-11T22:57:17.340Z,101291.14
2023-02-11T23:00:10.155Z,101301.93
2023-02-11T23:02:58.183Z,101310.10
2023-02-11T23:05:46.085Z,101307.61
2023-02-11T23:08:35.259Z,101310.02
2023-02-11T23:11:28.947Z,101313.99
2023-02-11T23:14:16.626Z,101313.42
2023-02-11T23:17:04.770Z,101319.75
2023-02-11T23:19:52.803Z,101321.55
2023-02-11T23:22:40.941Z,101324.24
2023-02-11T23:25:29.262Z,101328.80
2023-02-11T23:28:17.578Z,101329.33
2023-02-11T23:31:26.203Z,101337.38
2023-02-11T23:34:23.901Z,101341.25
2023-02-11T23:37:12.058Z,101341.05
2023-02-11T23:40:00.043Z,101341.56
2023-02-11T23:42:49.174Z,101348.02
2023-02-11T23:45:37.515Z,101358.19
2023-02-11T23:48:26.497Z,101370.95
2023-02-11T23:51:14.672Z,101376.05
2023-02-11T23:54:03.295Z,101381.86
2023-02-11T23:56:50.920Z,101387.60
2023-02-11T23:59:39.048Z,101390.21
